Latest Weather Observations for Newcastle Nobbys

IDN60901

Issued at 10:15 am EST Thursday 21 August 2014 (issued every 10 minutes, with the page automatically refreshed every 10 minutes)

About weather observations | Map of Sydney area stations | Latest observations for Sydney area | Other Formats
Station Details ID: 061055 Name: NEWCASTLE NOBBYS SIGNAL STATION AWS Lat: -32.92 Lon: 151.80 Height: 33.0 m
Data from the previous 72 hours. | See also: Recent months at Newcastle Nobbys
Date/Time
EST
Tmp

°C
App
Tmp
°C
Dew
Point
°C
Rel
Hum
%
Delta-T

°C
Wind Press
QNH
hPa
Press
MSL
hPa
Rain
since
9 am
mm
Dir
 
Spd
km/h
Gust
km/h
Spd
kts
Gust
kts
21/10:00am 13.6 11.3 11.7 88 1.0 WSW 15 26 8 14 - - 0.0
21/09:30am 13.0 10.9 11.2 89 0.9 WSW 13 19 7 10 - - 0.0
21/09:00am 13.5 11.9 11.7 89 1.0 SW 11 15 6 8 - - 1.0
21/08:30am 12.4 10.7 11.3 93 0.6 WSW 11 15 6 8 - - 0.8
21/08:00am 12.0 9.4 10.7 92 0.7 SW 15 20 8 11 - - 0.8
21/07:30am 11.9 9.2 10.5 91 0.7 SW 15 22 8 12 - - 0.6
21/07:00am 12.1 9.0 10.2 88 1.0 WSW 17 24 9 13 - - 0.2
21/06:30am 12.2 9.9 10.3 88 1.0 WSW 13 17 7 9 - - 0.2
21/06:00am 12.4 10.4 10.3 87 1.1 SW 11 20 6 11 - - 0.2
21/05:30am 12.5 9.5 10.7 89 0.9 SW 17 28 9 15 - - 0.2
21/05:00am 12.2 9.1 10.3 88 1.0 SW 17 22 9 12 - - 0.2
21/04:30am 12.1 9.7 10.2 88 1.0 SW 13 19 7 10 - - 0.2
21/04:00am 12.3 10.3 10.2 87 1.1 SW 11 17 6 9 - - 0.2
21/03:30am 12.3 9.9 10.2 87 1.1 SW 13 20 7 11 - - 0.2
21/03:00am 12.2 9.9 10.3 88 1.0 W 13 17 7 9 - - 0.2
21/02:30am 12.3 10.0 10.5 89 0.9 WSW 13 19 7 10 - - 0.2
21/02:00am 12.8 10.3 10.9 88 1.0 W 15 20 8 11 - - 0.2
21/01:30am 15.4 11.3 10.0 70 2.8 S 22 28 12 15 - - 0.2
21/01:00am 14.9 12.1 9.9 72 2.6 S 15 17 8 9 - - 0.2
21/12:30am 14.2 7.9 9.6 74 2.4 SSE 33 43 18 23 - - 0.2
21/12:00am 15.0 8.4 8.7 66 3.2 SSE 33 37 18 20 - - 0.2
 
Date/Time
EST
Tmp

°C
App
Tmp
°C
Dew
Point
°C
Rel
Hum
%
Delta-T

°C
Wind Press
QNH
hPa
Press
MSL
hPa
Rain
since
9 am
mm
Dir
 
Spd
km/h
Gust
km/h
Spd
kts
Gust
kts
20/11:30pm 15.3 9.2 8.3 63 3.5 SSE 30 35 16 19 - - 0.2
20/11:00pm 15.0 9.3 9.8 71 2.7 S 30 33 16 18 - - 0.2
20/10:30pm 15.2 11.0 11.0 76 2.2 S 24 39 13 21 - - 0.2
20/10:00pm 14.8 9.3 10.6 76 2.2 S 30 33 16 18 - - 0.2
20/09:30pm 15.3 9.0 9.7 69 2.9 S 33 39 18 21 - - 0.2
20/09:00pm 15.4 9.4 10.0 70 2.8 S 32 37 17 20 - - 0.2
20/08:30pm 15.3 9.4 10.5 73 2.5 S 32 37 17 20 - - 0.2
20/08:00pm 15.1 8.5 9.9 71 2.7 S 35 44 19 24 - - 0.2
20/07:30pm 14.9 8.6 10.9 77 2.1 S 35 43 19 23 - - 0.2
20/07:00pm 14.6 6.9 10.2 75 2.3 S 41 46 22 25 - - 0.2
20/06:30pm 14.1 8.5 12.1 88 1.1 SSE 33 44 18 24 - - 0.2
20/06:00pm 13.9 6.6 11.6 86 1.2 SSE 41 48 22 26 - - 0.2
20/05:54pm 14.5 7.1 11.1 80 1.8 SSE 41 44 22 24 - - 0.2
20/05:30pm 14.1 8.6 10.7 80 1.8 SSW 30 39 16 21 - - 0.2
20/05:00pm 13.7 7.4 10.9 83 1.5 SSW 35 44 19 24 - - 0.2
20/04:30pm 14.3 8.4 10.3 77 2.1 SSW 32 43 17 23 - - 0.2
20/04:00pm 14.0 10.4 10.4 79 1.9 SW 20 33 11 18 - - 0.2
20/03:30pm 13.2 9.3 10.9 86 1.2 SSW 22 32 12 17 - - 0.2
20/03:00pm 13.5 7.2 11.2 86 1.2 SSW 35 43 19 23 - - 0.2
20/02:30pm 13.6 10.6 10.8 83 1.5 SW 17 26 9 14 - - 0.2
20/02:00pm 12.8 8.3 10.2 84 1.3 SW 24 39 13 21 - - 0.2
20/01:30pm 13.8 8.1 9.8 77 2.1 SSW 30 43 16 23 - - 0.2
20/01:00pm 14.7 8.3 9.5 71 2.7 SSW 33 43 18 23 - - 0.2
20/12:30pm 14.7 9.8 10.1 74 2.4 SSW 26 37 14 20 - - 0.0
20/12:00pm 15.4 10.4 9.7 69 3.0 SSW 26 35 14 19 - - 0.0
20/11:30am 14.9 8.9 10.1 73 2.5 SSW 32 43 17 23 - - 0.0
20/11:00am 14.9 9.6 9.7 71 2.7 SSW 28 39 15 21 - - 0.0
20/10:30am 15.1 11.4 9.5 69 2.9 SW 19 30 10 16 - - 0.0
20/10:00am 14.0 10.0 9.0 72 2.5 SW 20 32 11 17 - - 0.0
20/09:30am 13.4 9.8 8.5 72 2.5 SW 17 28 9 15 - - 0.0
20/09:00am 13.4 9.5 8.5 72 2.5 SW 19 26 10 14 - - 16.0
20/08:30am 12.8 8.6 8.1 73 2.3 SW 20 32 11 17 - - 16.0
20/08:00am 12.6 8.3 7.9 73 2.3 SW 20 33 11 18 - - 16.0
20/07:30am 13.0 9.0 8.3 73 2.3 SW 19 32 10 17 - - 16.0
20/07:00am 12.0 7.6 7.3 73 2.3 WSW 20 35 11 19 - - 16.0
20/06:30am 12.0 7.5 7.1 72 2.4 WSW 20 32 11 17 - - 16.0
20/06:00am 11.8 7.4 7.3 74 2.2 WSW 20 32 11 17 - - 16.0
20/05:30am 12.1 7.8 7.8 75 2.1 SW 20 35 11 19 - - 16.0
20/05:00am 12.2 7.0 7.3 72 2.4 SW 24 35 13 19 - - 16.0
20/04:30am 12.5 7.4 7.8 73 2.3 SW 24 39 13 21 - - 16.0
20/04:00am 12.4 7.0 7.9 74 2.2 SW 26 41 14 22 - - 16.0
20/03:30am 12.3 7.7 8.2 76 2.0 SW 22 33 12 18 - - 16.0
20/03:00am 12.0 7.4 8.1 77 1.9 WSW 22 39 12 21 - - 16.0
20/02:30am 11.6 8.2 9.2 85 1.2 SW 17 30 9 16 - - 16.0
20/02:00am 11.3 7.6 9.4 88 1.0 SW 19 28 10 15 - - 15.8
20/01:30am 11.8 8.2 9.7 87 1.1 SW 19 35 10 19 - - 15.8
20/01:00am 12.2 7.3 9.8 85 1.2 SSW 26 41 14 22 - - 15.8
20/12:30am 12.1 7.1 9.7 85 1.2 SW 26 41 14 22 - - 15.4
20/12:00am 12.6 7.9 9.2 80 1.7 SW 24 37 13 20 - - 15.2
 
Date/Time
EST
Tmp

°C
App
Tmp
°C
Dew
Point
°C
Rel
Hum
%
Delta-T

°C
Wind Press
QNH
hPa
Press
MSL
hPa
Rain
since
9 am
mm
Dir
 
Spd
km/h
Gust
km/h
Spd
kts
Gust
kts
19/11:30pm 12.6 7.6 9.6 82 1.5 SW 26 41 14 22 - - 15.2
19/11:00pm 12.4 7.9 10.0 85 1.2 SW 24 33 13 18 - - 15.2
19/10:30pm 12.3 8.2 10.2 87 1.1 SW 22 33 12 18 - - 15.2
19/10:00pm 12.4 8.6 11.0 91 0.7 SW 22 33 12 18 - - 14.4
19/09:45pm 12.6 7.6 10.8 89 0.9 SW 28 48 15 26 - - 13.0
19/09:30pm 12.6 8.3 10.8 89 0.9 SW 24 37 13 20 - - 11.8
19/09:00pm 12.9 8.3 11.0 88 1.0 SW 26 44 14 24 - - 10.8
19/08:30pm 12.8 8.2 11.2 90 0.8 SW 26 37 14 20 - - 10.4
19/08:00pm 12.9 8.1 11.5 91 0.7 SW 28 43 15 23 - - 8.2
19/07:30pm 13.2 9.1 11.4 89 1.0 SW 24 33 13 18 - - 7.0
19/07:00pm 13.2 9.1 11.3 88 1.0 SW 24 39 13 21 - - 6.8
19/06:30pm 13.3 9.2 11.5 89 1.0 SW 24 41 13 22 - - 6.8
19/06:00pm 13.6 9.2 11.8 89 1.0 SW 26 44 14 24 - - 6.8
19/05:30pm 13.9 10.3 11.8 87 1.1 SW 22 37 12 20 - - 6.6
19/05:00pm 14.6 9.4 11.6 82 1.6 SW 30 50 16 27 - - 6.6
19/04:30pm 15.0 8.4 12.5 85 1.4 SSW 39 61 21 33 - - 6.6
19/04:16pm 14.3 9.1 12.9 91 0.8 SSW 32 50 17 27 - - 6.6
19/04:00pm 13.9 7.7 12.5 91 0.8 SSW 37 54 20 29 - - 6.4
19/03:30pm 15.4 8.3 12.3 82 1.7 SSW 41 61 22 33 - - 4.6
19/03:13pm 14.8 8.6 12.7 87 1.2 SSW 37 74 20 40 - - 4.4
19/03:00pm 14.2 8.9 12.6 90 0.9 SW 32 52 17 28 - - 4.4
19/02:36pm 13.6 8.1 12.0 90 0.9 SW 32 52 17 28 - - 2.8
19/02:30pm 14.2 8.6 12.2 88 1.1 SW 33 52 18 28 - - 0.8
19/02:00pm 15.1 7.3 11.1 77 2.1 SSW 43 61 23 33 - - 0.2
19/01:32pm 16.2 9.9 12.2 77 2.2 SSW 37 57 20 31 - - 0.2
19/01:30pm 16.1 10.0 11.9 76 2.3 SSW 35 54 19 29 - - 0.2
19/01:00pm 14.9 9.7 11.7 81 1.7 SW 30 59 16 32 - - 0.2
19/12:31pm 15.3 10.6 12.1 81 1.7 SW 28 46 15 25 - - 0.2
19/12:30pm 15.3 10.5 11.7 79 1.9 SW 28 46 15 25 - - 0.2
19/12:00pm 15.6 8.1 11.0 74 2.5 SSW 41 59 22 32 - - 0.2
19/11:30am 16.7 8.9 11.8 73 2.7 S 44 54 24 29 - - 0.2
19/11:00am 16.9 8.8 10.7 67 3.3 S 44 57 24 31 - - 0.2
19/10:30am 16.8 8.4 11.1 69 3.1 S 46 57 25 31 - - 0.2
19/10:00am 16.1 8.7 12.3 78 2.1 S 43 56 23 30 - - 0.2
19/09:40am 15.6 7.1 10.8 73 2.6 S 46 65 25 35 - - 0.0
19/09:30am 16.4 7.3 11.3 72 2.8 S 50 61 27 33 - - 0.0
19/09:00am 15.9 7.4 11.9 77 2.2 S 48 59 26 32 - - 22.6
19/08:30am 15.6 5.8 11.6 77 2.2 S 54 65 29 35 - - 22.6
19/08:07am 15.2 7.1 12.0 81 1.7 S 46 65 25 35 - - 22.6
19/08:00am 14.9 6.9 12.4 85 1.4 S 46 57 25 31 - - 22.6
19/07:30am 14.8 7.0 11.9 83 1.6 S 44 59 24 32 - - 22.4
19/07:14am 15.6 7.5 12.2 80 1.9 S 46 67 25 36 - - 22.4
19/07:00am 14.8 7.2 11.9 83 1.6 S 43 54 23 29 - - 22.4
19/06:30am 14.4 7.1 13.3 93 0.6 S 44 67 24 36 - - 21.2
19/06:11am 15.0 8.5 13.0 88 1.1 SSW 39 59 21 32 - - 20.4
19/06:00am 15.4 6.7 12.5 83 1.6 S 50 61 27 33 - - 20.4
19/05:41am 14.4 8.4 13.4 94 0.6 S 37 56 20 30 - - 20.2
19/05:30am 14.3 8.1 13.7 96 0.3 S 39 44 21 24 - - 19.4
19/05:00am 12.9 10.4 12.3 96 0.3 SW 17 22 9 12 - - 16.2
19/04:30am 13.0 9.2 12.4 96 0.3 W 24 32 13 17 - - 13.6
19/04:00am 12.7 8.4 12.1 96 0.3 W 26 32 14 17 - - 11.2
19/03:30am 12.7 8.8 12.1 96 0.3 W 24 30 13 16 - - 9.0
19/03:00am 12.7 9.5 11.9 95 0.4 W 20 26 11 14 - - 8.2
19/02:30am 12.9 9.2 11.5 91 0.7 W 22 32 12 17 - - 4.2
19/02:00am 13.0 9.3 11.4 90 0.8 W 22 32 12 17 - - 4.2
19/01:30am 13.1 9.3 11.2 88 1.0 W 22 32 12 17 - - 4.2
19/01:00am 13.2 9.4 11.3 88 1.0 W 22 32 12 17 - - 4.2
19/12:30am 13.1 8.9 11.2 88 1.0 W 24 32 13 17 - - 4.2
19/12:00am 13.2 9.8 11.3 88 1.0 W 20 30 11 16 - - 4.2
 
Date/Time
EST
Tmp

°C
App
Tmp
°C
Dew
Point
°C
Rel
Hum
%
Delta-T

°C
Wind Press
QNH
hPa
Press
MSL
hPa
Rain
since
9 am
mm
Dir
 
Spd
km/h
Gust
km/h
Spd
kts
Gust
kts
18/11:30pm 13.3 9.6 11.4 88 1.0 W 22 33 12 18 - - 4.2
18/11:00pm 13.3 9.2 11.4 88 1.0 WSW 24 35 13 19 - - 4.2
18/10:30pm 13.4 8.5 11.3 87 1.1 WSW 28 39 15 21 - - 4.2
18/10:00pm 13.5 7.9 11.4 87 1.1 WSW 32 46 17 25 - - 4.2
18/09:30pm 13.3 8.1 11.5 89 1.0 WSW 30 43 16 23 - - 3.8
18/09:00pm 13.5 7.2 11.0 85 1.3 W 35 59 19 32 - - 2.8
18/08:30pm 14.1 6.1 10.5 79 1.9 W 43 65 23 35 - - 2.6
18/08:00pm 14.2 7.3 10.2 77 2.1 W 37 57 20 31 - - 2.6
18/07:30pm 13.9 7.2 11.1 83 1.5 W 37 52 20 28 - - 2.6
18/07:13pm 13.6 7.7 11.3 86 1.2 W 33 52 18 28 - - 2.6
18/07:00pm 14.0 7.4 11.2 83 1.5 W 37 52 20 28 - - 2.6
18/06:30pm 14.1 8.1 10.9 81 1.7 W 33 46 18 25 - - 2.6
18/06:00pm 14.3 8.5 11.5 83 1.5 WSW 33 48 18 26 - - 2.6
18/05:30pm 14.0 9.2 11.5 85 1.3 WSW 28 48 15 26 - - 2.6
18/05:00pm 13.8 9.0 11.8 88 1.1 WSW 28 46 15 25 - - 2.6
18/04:47pm 13.8 9.0 11.8 88 1.1 WSW 28 46 15 25 - - 2.6
18/04:30pm 13.9 9.6 11.9 88 1.1 WSW 26 41 14 22 - - 2.6
18/04:00pm 14.0 9.4 12.2 89 1.0 SW 28 43 15 23 - - 2.6
18/03:30pm 14.1 9.6 12.7 91 0.8 SW 28 50 15 27 - - 2.4
18/03:00pm 14.6 10.2 13.0 90 0.9 SW 28 52 15 28 - - 2.0
18/02:40pm 14.7 10.0 13.2 91 0.8 SW 30 50 16 27 - - 2.0
18/02:30pm 14.3 11.7 12.0 86 1.2 W 17 26 9 14 - - 1.6
18/02:00pm 16.4 13.9 11.1 71 2.8 W 15 22 8 12 - - 0.0
18/01:30pm 14.7 10.5 9.9 73 2.5 W 22 28 12 15 - - 0.0
18/01:00pm 15.0 11.3 9.4 69 2.9 WNW 19 28 10 15 - - 0.0
18/12:30pm 15.2 10.0 8.9 66 3.2 WNW 26 33 14 18 - - 0.0
18/12:00pm 15.4 11.1 9.3 67 3.1 WNW 22 30 12 16 - - 0.0
18/11:30am 15.6 10.8 8.8 64 3.5 NW 24 32 13 17 - - 0.0
18/11:00am 15.6 10.5 9.3 66 3.3 NW 26 33 14 18 - - 0.0
18/10:30am 15.4 9.2 9.5 68 3.1 NW 32 44 17 24 - - 0.0

Latest Capital City Observations: Canberra | Sydney | Melbourne | Brisbane | Adelaide | Perth | Hobart | Darwin

Other Formats:

Comma delimited format used in spreadsheet applications
http://www.bom.gov.au/fwo/IDN60901/IDN60901.94774.axf

JavaScript Object Notation format (JSON) in row-major order
http://www.bom.gov.au/fwo/IDN60901/IDN60901.94774.json